VLG7RN LEBB-LEZL
Flight info
| Callsign | VLG7RN |
|---|---|
| Flight time | 1h 0m |
| Altitude | 33000 |
| Route | AMTOS L14 NEA DCT NONTU DCT ORBIS DCT DISKO DCT TLD DCT DOPEN DCT MONTO DCT MOLIN DCT HIJ |
| Aircraft | A320/M-SDE3FGHIRWY/LB1 |
Departure
| Time | 2026-03-27 06:38 |
|---|---|
| Airport | Bilbao Airport (LEBB) |
Arrival
| Time | 2026-03-27 07:38 |
|---|---|
| Airport | Seville Airport (LEZL) |
| Time | Latitude | Longitude | Altitude | Speed | Heading |
|---|---|---|---|---|---|
| 2026-03-27 06:23 | 43.30442 | -2.90685 | 127 ft | 0 kts | 26° |
| 2026-03-27 06:30 | 43.30434 | -2.90690 | 122 ft | 3 kts | 26° |
| 2026-03-27 06:30 | 43.30416 | -2.90702 | 123 ft | 3 kts | 21° |
| 2026-03-27 06:31 | 43.30397 | -2.90711 | 126 ft | 3 kts | 8° |
| 2026-03-27 06:31 | 43.30379 | -2.90711 | 127 ft | 3 kts | 327° |
| 2026-03-27 06:31 | 43.30372 | -2.90703 | 125 ft | 0 kts | 296° |
| 2026-03-27 06:31 | 43.30372 | -2.90702 | 125 ft | 0 kts | 296° |
| 2026-03-27 06:33 | 43.30385 | -2.90739 | 126 ft | 7 kts | 296° |
| 2026-03-27 06:33 | 43.30404 | -2.90797 | 127 ft | 7 kts | 285° |
| 2026-03-27 06:33 | 43.30403 | -2.90909 | 127 ft | 18 kts | 265° |
| 2026-03-27 06:34 | 43.30330 | -2.91018 | 126 ft | 19 kts | 203° |
| 2026-03-27 06:34 | 43.30335 | -2.91161 | 127 ft | 20 kts | 297° |
| 2026-03-27 06:34 | 43.30406 | -2.91359 | 128 ft | 26 kts | 297° |
| 2026-03-27 06:34 | 43.30479 | -2.91559 | 128 ft | 24 kts | 296° |
| 2026-03-27 06:35 | 43.30563 | -2.91786 | 124 ft | 27 kts | 296° |
| 2026-03-27 06:35 | 43.30653 | -2.92029 | 128 ft | 27 kts | 295° |
| 2026-03-27 06:35 | 43.30733 | -2.92251 | 126 ft | 27 kts | 297° |
| 2026-03-27 06:35 | 43.30801 | -2.92451 | 126 ft | 10 kts | 281° |
| 2026-03-27 06:36 | 43.30798 | -2.92480 | 126 ft | 1 kts | 248° |
| 2026-03-27 06:36 | 43.30786 | -2.92496 | 128 ft | 6 kts | 218° |
| 2026-03-27 06:36 | 43.30729 | -2.92496 | 128 ft | 14 kts | 165° |
| 2026-03-27 06:36 | 43.30620 | -2.92425 | 125 ft | 18 kts | 139° |
| 2026-03-27 06:37 | 43.30582 | -2.92346 | 126 ft | 6 kts | 116° |
| 2026-03-27 06:37 | 43.30517 | -2.92170 | 126 ft | 51 kts | 115° |
| 2026-03-27 06:37 | 43.30233 | -2.91394 | 125 ft | 127 kts | 116° |
| 2026-03-27 06:37 | 43.29765 | -2.90170 | 582 ft | 147 kts | 118° |
| 2026-03-27 06:38 | 43.29286 | -2.88882 | 1321 ft | 155 kts | 116° |
| 2026-03-27 06:38 | 43.28790 | -2.87475 | 1952 ft | 175 kts | 114° |
| 2026-03-27 06:38 | 43.28222 | -2.85828 | 2300 ft | 209 kts | 113° |
| 2026-03-27 06:38 | 43.27551 | -2.83876 | 2614 ft | 244 kts | 113° |
| 2026-03-27 06:39 | 43.26771 | -2.81722 | 3542 ft | 253 kts | 115° |
| 2026-03-27 06:39 | 43.25992 | -2.79673 | 5146 ft | 234 kts | 115° |
| 2026-03-27 06:39 | 43.25244 | -2.77710 | 6336 ft | 231 kts | 113° |
| 2026-03-27 06:39 | 43.24614 | -2.75701 | 7313 ft | 228 kts | 97° |
| 2026-03-27 06:40 | 43.24570 | -2.73575 | 8220 ft | 222 kts | 72° |
| 2026-03-27 06:40 | 43.25136 | -2.71649 | 9172 ft | 216 kts | 50° |
| 2026-03-27 06:40 | 43.26123 | -2.70246 | 10145 ft | 212 kts | 32° |
| 2026-03-27 06:40 | 43.27447 | -2.69408 | 11049 ft | 211 kts | 13° |
| 2026-03-27 06:41 | 43.28924 | -2.69289 | 11925 ft | 217 kts | 353° |
| 2026-03-27 06:41 | 43.30373 | -2.69982 | 12781 ft | 227 kts | 333° |
| 2026-03-27 06:41 | 43.31563 | -2.71481 | 13646 ft | 241 kts | 310° |
| 2026-03-27 06:41 | 43.32224 | -2.73642 | 14454 ft | 258 kts | 285° |
| 2026-03-27 06:42 | 43.32168 | -2.76188 | 15253 ft | 271 kts | 268° |
| 2026-03-27 06:42 | 43.31894 | -2.78758 | 16089 ft | 273 kts | 267° |
| 2026-03-27 06:42 | 43.31611 | -2.81349 | 16933 ft | 275 kts | 267° |
| 2026-03-27 06:42 | 43.31327 | -2.83961 | 17773 ft | 278 kts | 267° |
| 2026-03-27 06:43 | 43.31047 | -2.86597 | 18597 ft | 280 kts | 267° |
| 2026-03-27 06:43 | 43.30762 | -2.89254 | 19305 ft | 284 kts | 264° |
| 2026-03-27 06:43 | 43.30105 | -2.91859 | 19977 ft | 296 kts | 245° |
| 2026-03-27 06:43 | 43.28796 | -2.94151 | 20363 ft | 321 kts | 224° |
| 2026-03-27 06:44 | 43.26922 | -2.96038 | 20554 ft | 346 kts | 218° |
| 2026-03-27 06:44 | 43.24879 | -2.97999 | 20690 ft | 370 kts | 218° |
| 2026-03-27 06:44 | 43.22716 | -3.00085 | 20829 ft | 392 kts | 218° |
| 2026-03-27 06:44 | 43.20431 | -3.02296 | 20948 ft | 412 kts | 218° |
| 2026-03-27 06:45 | 43.18067 | -3.04590 | 21069 ft | 431 kts | 218° |
| 2026-03-27 06:45 | 43.15571 | -3.07017 | 21180 ft | 448 kts | 218° |
| 2026-03-27 06:45 | 43.12990 | -3.09526 | 21307 ft | 461 kts | 218° |
| 2026-03-27 06:45 | 43.10340 | -3.12100 | 21430 ft | 472 kts | 218° |
| 2026-03-27 06:46 | 43.07632 | -3.14727 | 21550 ft | 481 kts | 218° |
| 2026-03-27 06:46 | 43.04846 | -3.17424 | 21795 ft | 486 kts | 217° |
| 2026-03-27 06:46 | 43.02114 | -3.20060 | 22096 ft | 489 kts | 217° |
| 2026-03-27 06:46 | 42.99326 | -3.22742 | 22406 ft | 492 kts | 217° |
| 2026-03-27 06:47 | 42.96510 | -3.25413 | 22695 ft | 494 kts | 217° |
| 2026-03-27 06:47 | 42.93659 | -3.28072 | 22984 ft | 497 kts | 216° |
| 2026-03-27 06:47 | 42.90789 | -3.30718 | 23266 ft | 500 kts | 216° |
| 2026-03-27 06:47 | 42.87900 | -3.33372 | 23520 ft | 502 kts | 216° |
| 2026-03-27 06:48 | 42.85001 | -3.36031 | 23767 ft | 504 kts | 216° |
| 2026-03-27 06:48 | 42.82083 | -3.38711 | 23969 ft | 506 kts | 216° |
| 2026-03-27 06:48 | 42.79168 | -3.41394 | 24151 ft | 507 kts | 216° |
| 2026-03-27 06:48 | 42.76244 | -3.44092 | 24309 ft | 508 kts | 216° |
| 2026-03-27 06:49 | 42.73317 | -3.46795 | 24471 ft | 508 kts | 216° |
| 2026-03-27 06:49 | 42.70390 | -3.49498 | 24613 ft | 509 kts | 216° |
| 2026-03-27 06:49 | 42.67451 | -3.52206 | 24740 ft | 510 kts | 216° |
| 2026-03-27 06:49 | 42.64506 | -3.54910 | 24851 ft | 511 kts | 216° |
| 2026-03-27 06:50 | 42.61555 | -3.57613 | 24959 ft | 512 kts | 216° |
| 2026-03-27 06:50 | 42.58606 | -3.60312 | 25091 ft | 512 kts | 216° |
| 2026-03-27 06:50 | 42.55657 | -3.63012 | 25240 ft | 512 kts | 216° |
| 2026-03-27 06:50 | 42.52706 | -3.65716 | 25385 ft | 512 kts | 216° |
| 2026-03-27 06:51 | 42.49756 | -3.68418 | 25538 ft | 512 kts | 216° |
| 2026-03-27 06:51 | 42.46804 | -3.71114 | 25701 ft | 512 kts | 216° |
| 2026-03-27 06:51 | 42.43853 | -3.73802 | 25877 ft | 511 kts | 216° |
| 2026-03-27 06:51 | 42.40899 | -3.76484 | 26095 ft | 511 kts | 216° |
| 2026-03-27 06:52 | 42.37944 | -3.79164 | 26275 ft | 511 kts | 216° |
| 2026-03-27 06:52 | 42.34995 | -3.81841 | 26463 ft | 511 kts | 216° |
| 2026-03-27 06:52 | 42.32045 | -3.84521 | 26638 ft | 511 kts | 216° |
| 2026-03-27 06:52 | 42.29097 | -3.87198 | 26810 ft | 511 kts | 216° |
| 2026-03-27 06:53 | 42.26148 | -3.89871 | 27015 ft | 511 kts | 216° |
| 2026-03-27 06:53 | 42.23193 | -3.92543 | 27219 ft | 511 kts | 216° |
| 2026-03-27 06:53 | 42.20242 | -3.95201 | 27424 ft | 511 kts | 216° |
| 2026-03-27 06:53 | 42.17288 | -3.97863 | 27640 ft | 510 kts | 216° |
| 2026-03-27 06:54 | 42.14342 | -4.00518 | 27856 ft | 510 kts | 216° |
| 2026-03-27 06:54 | 42.11390 | -4.03175 | 28086 ft | 510 kts | 216° |
| 2026-03-27 06:54 | 42.08434 | -4.05827 | 28292 ft | 510 kts | 216° |
| 2026-03-27 06:54 | 42.05373 | -4.08254 | 28537 ft | 512 kts | 208° |
| 2026-03-27 06:55 | 41.98623 | -4.11262 | 29024 ft | 514 kts | 190° |
| 2026-03-27 06:55 | 41.95122 | -4.11799 | 29276 ft | 513 kts | 184° |
| 2026-03-27 06:55 | 41.92727 | -4.12062 | 29465 ft | 513 kts | 184° |
| 2026-03-27 06:56 | 41.89166 | -4.12455 | 29734 ft | 512 kts | 184° |
| 2026-03-27 06:56 | 41.85618 | -4.12852 | 30012 ft | 511 kts | 184° |
| 2026-03-27 06:56 | 41.82073 | -4.13258 | 30289 ft | 511 kts | 185° |
| 2026-03-27 06:56 | 41.77391 | -4.13795 | 30606 ft | 510 kts | 185° |
| 2026-03-27 06:57 | 41.73858 | -4.14199 | 30861 ft | 509 kts | 185° |
| 2026-03-27 06:57 | 41.71473 | -4.14473 | 31025 ft | 509 kts | 185° |
| 2026-03-27 06:57 | 41.67948 | -4.14879 | 31264 ft | 508 kts | 184° |
| 2026-03-27 06:57 | 41.64435 | -4.15281 | 31515 ft | 507 kts | 184° |
| 2026-03-27 06:58 | 41.60918 | -4.15679 | 31773 ft | 506 kts | 184° |
| 2026-03-27 06:58 | 41.57416 | -4.16071 | 32032 ft | 506 kts | 184° |
| 2026-03-27 06:58 | 41.53907 | -4.16464 | 32300 ft | 505 kts | 184° |
| 2026-03-27 06:58 | 41.50459 | -4.16851 | 32565 ft | 504 kts | 184° |
| 2026-03-27 06:59 | 41.46970 | -4.17242 | 32830 ft | 503 kts | 184° |
| 2026-03-27 06:59 | 41.43487 | -4.17633 | 33104 ft | 502 kts | 184° |
| 2026-03-27 06:59 | 41.40004 | -4.18028 | 33240 ft | 502 kts | 184° |
| 2026-03-27 06:59 | 41.36532 | -4.18422 | 33260 ft | 501 kts | 184° |
| 2026-03-27 07:00 | 41.29590 | -4.19203 | 33260 ft | 500 kts | 184° |
| 2026-03-27 07:00 | 41.22654 | -4.19979 | 33258 ft | 501 kts | 184° |
| 2026-03-27 07:01 | 41.15707 | -4.20754 | 33252 ft | 500 kts | 184° |
| 2026-03-27 07:01 | 41.08766 | -4.21522 | 33245 ft | 500 kts | 184° |
| 2026-03-27 07:02 | 41.01826 | -4.22290 | 33240 ft | 501 kts | 184° |
| 2026-03-27 07:02 | 40.94881 | -4.23055 | 33231 ft | 501 kts | 184° |
| 2026-03-27 07:03 | 40.87929 | -4.23823 | 33220 ft | 501 kts | 184° |
| 2026-03-27 07:03 | 40.80978 | -4.24598 | 33204 ft | 501 kts | 184° |
| 2026-03-27 07:04 | 40.74028 | -4.25368 | 33208 ft | 501 kts | 184° |
| 2026-03-27 07:04 | 40.67078 | -4.26129 | 33211 ft | 501 kts | 184° |
| 2026-03-27 07:05 | 40.60128 | -4.26889 | 33202 ft | 501 kts | 184° |
| 2026-03-27 07:05 | 40.53180 | -4.27651 | 33207 ft | 501 kts | 184° |
| 2026-03-27 07:06 | 40.46230 | -4.28402 | 33194 ft | 501 kts | 184° |
| 2026-03-27 07:06 | 40.39281 | -4.29161 | 33194 ft | 501 kts | 184° |
| 2026-03-27 07:07 | 40.32335 | -4.29915 | 33194 ft | 501 kts | 184° |
| 2026-03-27 07:07 | 40.25444 | -4.30659 | 33183 ft | 500 kts | 184° |
| 2026-03-27 07:08 | 40.18504 | -4.31418 | 33179 ft | 500 kts | 184° |
| 2026-03-27 07:08 | 40.11567 | -4.32165 | 33176 ft | 500 kts | 184° |
| 2026-03-27 07:09 | 40.04633 | -4.32915 | 33170 ft | 500 kts | 184° |
| 2026-03-27 07:09 | 39.97693 | -4.33660 | 33168 ft | 500 kts | 184° |
| 2026-03-27 07:10 | 39.90783 | -4.34791 | 33171 ft | 501 kts | 188° |
| 2026-03-27 07:10 | 39.83929 | -4.36409 | 33167 ft | 501 kts | 190° |
| 2026-03-27 07:11 | 39.77084 | -4.38066 | 33167 ft | 500 kts | 189° |
| 2026-03-27 07:11 | 39.70219 | -4.39577 | 33164 ft | 500 kts | 188° |
| 2026-03-27 07:12 | 39.63337 | -4.41000 | 33152 ft | 501 kts | 188° |
| 2026-03-27 07:12 | 39.56454 | -4.42428 | 33140 ft | 501 kts | 188° |
| 2026-03-27 07:13 | 39.49577 | -4.43884 | 33143 ft | 501 kts | 188° |
| 2026-03-27 07:13 | 39.42702 | -4.45354 | 33133 ft | 501 kts | 188° |
| 2026-03-27 07:14 | 39.35828 | -4.46812 | 33124 ft | 500 kts | 188° |
| 2026-03-27 07:14 | 39.28953 | -4.48259 | 33118 ft | 500 kts | 188° |
| 2026-03-27 07:15 | 39.22221 | -4.50440 | 33125 ft | 500 kts | 202° |
| 2026-03-27 07:15 | 39.16181 | -4.54798 | 33128 ft | 498 kts | 214° |
| 2026-03-27 07:16 | 39.10411 | -4.59729 | 33113 ft | 498 kts | 214° |
| 2026-03-27 07:16 | 39.04631 | -4.64650 | 33109 ft | 498 kts | 214° |
| 2026-03-27 07:17 | 38.98848 | -4.69554 | 33110 ft | 498 kts | 214° |
| 2026-03-27 07:17 | 38.93105 | -4.74419 | 33119 ft | 497 kts | 214° |
| 2026-03-27 07:18 | 38.87326 | -4.79312 | 33117 ft | 497 kts | 214° |
| 2026-03-27 07:18 | 38.81549 | -4.84191 | 33116 ft | 497 kts | 214° |
| 2026-03-27 07:19 | 38.75768 | -4.89057 | 33124 ft | 497 kts | 213° |
| 2026-03-27 07:19 | 38.69995 | -4.93912 | 33118 ft | 496 kts | 213° |
| 2026-03-27 07:20 | 38.64218 | -4.98762 | 33095 ft | 497 kts | 213° |
| 2026-03-27 07:20 | 38.58428 | -5.03618 | 33096 ft | 498 kts | 213° |
| 2026-03-27 07:21 | 38.52626 | -5.08463 | 33095 ft | 498 kts | 213° |
| 2026-03-27 07:21 | 38.47204 | -5.13956 | 33099 ft | 498 kts | 221° |
| 2026-03-27 07:22 | 38.44590 | -5.16853 | 32971 ft | 498 kts | 221° |
| 2026-03-27 07:22 | 38.41970 | -5.19748 | 32711 ft | 498 kts | 221° |
| 2026-03-27 07:22 | 38.39350 | -5.22640 | 32450 ft | 498 kts | 221° |
| 2026-03-27 07:22 | 38.36726 | -5.25533 | 32191 ft | 499 kts | 221° |
| 2026-03-27 07:23 | 38.34104 | -5.28415 | 31935 ft | 499 kts | 221° |
| 2026-03-27 07:23 | 38.31465 | -5.31304 | 31677 ft | 499 kts | 221° |
| 2026-03-27 07:23 | 38.28836 | -5.34178 | 30770 ft | 498 kts | 221° |
| 2026-03-27 07:23 | 38.26195 | -5.37065 | 29367 ft | 502 kts | 221° |
| 2026-03-27 07:24 | 38.23544 | -5.39965 | 27920 ft | 503 kts | 221° |
| 2026-03-27 07:24 | 38.20894 | -5.42865 | 26547 ft | 502 kts | 221° |
| 2026-03-27 07:24 | 38.18250 | -5.45758 | 25242 ft | 500 kts | 221° |
| 2026-03-27 07:24 | 38.15617 | -5.48637 | 23995 ft | 498 kts | 221° |
| 2026-03-27 07:25 | 38.13000 | -5.51496 | 22635 ft | 495 kts | 221° |
| 2026-03-27 07:25 | 38.10398 | -5.54335 | 21350 ft | 492 kts | 221° |
| 2026-03-27 07:25 | 38.07821 | -5.57139 | 20401 ft | 483 kts | 221° |
| 2026-03-27 07:25 | 38.05325 | -5.59855 | 19461 ft | 476 kts | 220° |
| 2026-03-27 07:26 | 38.02795 | -5.62608 | 18520 ft | 470 kts | 220° |
| 2026-03-27 07:26 | 38.00329 | -5.65291 | 17539 ft | 464 kts | 220° |
| 2026-03-27 07:26 | 37.97923 | -5.67901 | 16632 ft | 458 kts | 220° |
| 2026-03-27 07:26 | 37.95516 | -5.70505 | 15744 ft | 452 kts | 220° |
| 2026-03-27 07:27 | 37.93141 | -5.73072 | 14871 ft | 447 kts | 220° |
| 2026-03-27 07:27 | 37.90788 | -5.75615 | 14051 ft | 442 kts | 220° |
| 2026-03-27 07:27 | 37.88460 | -5.78129 | 13170 ft | 437 kts | 220° |
| 2026-03-27 07:27 | 37.86160 | -5.80616 | 12370 ft | 431 kts | 220° |
| 2026-03-27 07:28 | 37.83934 | -5.83021 | 12173 ft | 410 kts | 220° |
| 2026-03-27 07:28 | 37.81816 | -5.85307 | 12037 ft | 389 kts | 220° |
| 2026-03-27 07:28 | 37.79808 | -5.87471 | 11918 ft | 370 kts | 220° |
| 2026-03-27 07:28 | 37.77892 | -5.89532 | 11794 ft | 353 kts | 220° |
| 2026-03-27 07:29 | 37.76059 | -5.91502 | 11669 ft | 339 kts | 220° |
| 2026-03-27 07:29 | 37.74299 | -5.93395 | 11507 ft | 327 kts | 220° |
| 2026-03-27 07:29 | 37.72582 | -5.95242 | 11188 ft | 322 kts | 220° |
| 2026-03-27 07:29 | 37.70882 | -5.97070 | 10811 ft | 320 kts | 220° |
| 2026-03-27 07:30 | 37.69194 | -5.98882 | 10425 ft | 318 kts | 220° |
| 2026-03-27 07:30 | 37.67514 | -6.00684 | 10054 ft | 315 kts | 220° |
| 2026-03-27 07:30 | 37.65878 | -6.02518 | 9617 ft | 314 kts | 223° |
| 2026-03-27 07:30 | 37.64327 | -6.04444 | 9171 ft | 312 kts | 224° |
| 2026-03-27 07:31 | 37.62720 | -6.06270 | 8737 ft | 310 kts | 219° |
| 2026-03-27 07:31 | 37.61028 | -6.07932 | 8321 ft | 307 kts | 215° |
| 2026-03-27 07:31 | 37.59264 | -6.09431 | 7892 ft | 304 kts | 211° |
| 2026-03-27 07:31 | 37.57436 | -6.10760 | 7462 ft | 302 kts | 206° |
| 2026-03-27 07:32 | 37.55542 | -6.11880 | 7033 ft | 299 kts | 202° |
| 2026-03-27 07:32 | 37.53616 | -6.12836 | 6641 ft | 296 kts | 198° |
| 2026-03-27 07:32 | 37.51656 | -6.13662 | 5939 ft | 301 kts | 195° |
| 2026-03-27 07:32 | 37.49631 | -6.14345 | 5134 ft | 309 kts | 191° |
| 2026-03-27 07:33 | 37.47498 | -6.14872 | 4296 ft | 315 kts | 187° |
| 2026-03-27 07:33 | 37.45306 | -6.15203 | 3506 ft | 319 kts | 181° |
| 2026-03-27 07:33 | 37.43188 | -6.14903 | 3235 ft | 296 kts | 155° |
| 2026-03-27 07:33 | 37.41645 | -6.13412 | 3077 ft | 271 kts | 122° |
| 2026-03-27 07:34 | 37.41069 | -6.11287 | 2951 ft | 250 kts | 94° |
| 2026-03-27 07:34 | 37.41081 | -6.09178 | 2850 ft | 233 kts | 85° |
| 2026-03-27 07:34 | 37.41230 | -6.07215 | 2734 ft | 219 kts | 83° |
| 2026-03-27 07:34 | 37.41384 | -6.05331 | 2405 ft | 211 kts | 83° |
| 2026-03-27 07:35 | 37.41501 | -6.03573 | 2203 ft | 191 kts | 85° |
| 2026-03-27 07:35 | 37.41573 | -6.02022 | 2105 ft | 164 kts | 85° |
| 2026-03-27 07:35 | 37.41647 | -6.00676 | 1870 ft | 143 kts | 83° |
| 2026-03-27 07:35 | 37.41703 | -5.99486 | 1605 ft | 131 kts | 84° |
| 2026-03-27 07:36 | 37.41730 | -5.98358 | 1309 ft | 128 kts | 85° |
| 2026-03-27 07:36 | 37.41749 | -5.97255 | 1012 ft | 124 kts | 85° |
| 2026-03-27 07:36 | 37.41774 | -5.96166 | 855 ft | 124 kts | 85° |
| 2026-03-27 07:36 | 37.41775 | -5.95078 | 741 ft | 124 kts | 85° |
| 2026-03-27 07:37 | 37.41783 | -5.93988 | 619 ft | 126 kts | 86° |
| 2026-03-27 07:37 | 37.41786 | -5.92893 | 408 ft | 126 kts | 87° |
| 2026-03-27 07:37 | 37.41783 | -5.91798 | 220 ft | 125 kts | 86° |
| 2026-03-27 07:37 | 37.41789 | -5.90717 | 97 ft | 117 kts | 87° |
| 2026-03-27 07:38 | 37.41796 | -5.89899 | 99 ft | 71 kts | 90° |
| 2026-03-27 07:38 | 37.41796 | -5.89370 | 100 ft | 42 kts | 90° |
| 2026-03-27 07:38 | 37.41865 | -5.89272 | 101 ft | 17 kts | 338° |
| 2026-03-27 07:38 | 37.41974 | -5.89352 | 99 ft | 20 kts | 328° |
| 2026-03-27 07:39 | 37.42083 | -5.89471 | 100 ft | 22 kts | 307° |
| 2026-03-27 07:39 | 37.42187 | -5.89628 | 95 ft | 24 kts | 312° |
| 2026-03-27 07:39 | 37.42247 | -5.89784 | 96 ft | 18 kts | 233° |
| 2026-03-27 07:39 | 37.42160 | -5.89887 | 94 ft | 17 kts | 223° |
| 2026-03-27 07:40 | 37.42180 | -5.89976 | 94 ft | 10 kts | 318° |
| 2026-03-27 07:40 | 37.42191 | -5.89989 | 94 ft | 0 kts | 314° |